createdAt,value
2022-11-29T00:02:44.694Z,33.40
2022-11-29T00:07:46.940Z,31.57
2022-11-29T00:12:49.486Z,27.17
2022-11-29T00:17:53.035Z,31.63
2022-11-29T00:22:55.236Z,32.17
2022-11-29T00:27:57.168Z,28.63
2022-11-29T00:33:00.723Z,33.37
2022-11-29T00:38:02.817Z,29.70
2022-11-29T00:43:04.938Z,29.00
2022-11-29T00:48:08.256Z,34.13
2022-11-29T00:53:10.379Z,32.57
2022-11-29T00:58:12.404Z,29.43
2022-11-29T01:03:16.420Z,27.10
2022-11-29T01:08:18.556Z,31.77
2022-11-29T01:13:20.626Z,26.67
2022-11-29T01:18:24.278Z,30.23
2022-11-29T01:23:26.843Z,30.90
2022-11-29T01:28:29.775Z,32.80
2022-11-29T01:33:33.444Z,36.17
2022-11-29T01:38:36.470Z,30.97
2022-11-29T01:43:55.324Z,32.53
2022-11-29T01:49:03.838Z,32.67
2022-11-29T01:54:06.624Z,29.40
2022-11-29T01:59:12.973Z,31.93
2022-11-29T02:04:18.644Z,29.17
2022-11-29T02:09:22.994Z,31.87
2022-11-29T02:14:40.401Z,33.20
2022-11-29T02:20:08.853Z,29.03
2022-11-29T02:25:31.245Z,27.37
2022-11-29T02:30:53.965Z,30.97
2022-11-29T02:36:24.324Z,33.63
2022-11-29T02:41:44.699Z,30.40
2022-11-29T02:46:57.041Z,26.03
2022-11-29T02:52:02.606Z,28.97
2022-11-29T02:57:16.204Z,34.33
2022-11-29T03:02:24.933Z,29.87
2022-11-29T03:07:39.333Z,33.43
2022-11-29T03:12:46.635Z,37.63
2022-11-29T03:18:04.152Z,36.10
2022-11-29T03:23:22.198Z,29.53
2022-11-29T03:28:31.334Z,35.43
2022-11-29T03:33:45.570Z,27.20
2022-11-29T03:38:53.110Z,33.17
2022-11-29T03:44:00.300Z,28.20
2022-11-29T03:49:06.720Z,33.97
2022-11-29T03:54:15.348Z,30.47
2022-11-29T03:59:30.182Z,34.67
2022-11-29T04:05:05.056Z,32.67
2022-11-29T04:10:20.804Z,30.40
2022-11-29T04:15:57.443Z,32.57
2022-11-29T04:21:30.576Z,31.43
2022-11-29T04:26:57.936Z,36.13
2022-11-29T04:32:47.536Z,35.60
2022-11-29T04:38:16.662Z,31.47
2022-11-29T04:43:49.934Z,28.40
2022-11-29T04:49:06.441Z,32.63
2022-11-29T04:54:20.906Z,32.83
2022-11-29T04:59:30.844Z,32.43
2022-11-29T05:04:41.052Z,32.27
2022-11-29T05:09:58.838Z,32.87
2022-11-29T05:15:49.382Z,29.17
2022-11-29T05:20:58.067Z,30.80
2022-11-29T05:26:05.522Z,30.40
2022-11-29T05:31:25.189Z,29.80
2022-11-29T05:36:40.038Z,28.67
2022-11-29T05:42:05.194Z,30.83
2022-11-29T05:47:09.800Z,34.80
2022-11-29T05:52:36.512Z,32.17
2022-11-29T05:57:46.665Z,30.80
2022-11-29T06:02:58.613Z,30.23
2022-11-29T06:08:07.125Z,37.77
2022-11-29T06:13:20.838Z,32.33
2022-11-29T06:18:38.095Z,31.37
2022-11-29T06:23:55.750Z,26.77
2022-11-29T06:29:17.921Z,39.93
2022-11-29T06:34:31.043Z,30.33
2022-11-29T06:39:33.529Z,31.77
2022-11-29T06:44:36.208Z,31.57
2022-11-29T06:49:47.217Z,35.90
2022-11-29T06:55:03.091Z,32.30
2022-11-29T07:00:12.752Z,32.07
2022-11-29T07:05:23.788Z,31.27
2022-11-29T07:10:27.644Z,35.97
2022-11-29T07:15:30.172Z,32.23
2022-11-29T07:20:41.450Z,27.90
2022-11-29T07:25:53.090Z,38.07
2022-11-29T07:31:05.382Z,38.03
2022-11-29T07:36:14.823Z,32.07
2022-11-29T07:41:23.287Z,30.57
2022-11-29T07:46:25.579Z,33.80
2022-11-29T07:51:28.831Z,40.03
2022-11-29T07:56:30.854Z,31.13
2022-11-29T08:01:33.044Z,39.07
2022-11-29T08:06:36.480Z,37.03
2022-11-29T08:11:39.631Z,34.93
2022-11-29T08:16:41.740Z,32.30
2022-11-29T08:21:45.511Z,34.97
2022-11-29T08:26:47.664Z,32.43
2022-11-29T08:31:51.184Z,36.63
2022-11-29T08:36:56.291Z,31.37
2022-11-29T08:41:58.417Z,33.27
2022-11-29T08:47:00.753Z,33.33
2022-11-29T08:52:04.149Z,37.03
2022-11-29T08:57:38.147Z,31.23
2022-11-29T09:02:27.995Z,31.80
2022-11-29T09:07:31.659Z,35.07
2022-11-29T09:12:34.917Z,31.80
2022-11-29T09:17:37.263Z,36.90
2022-11-29T09:22:40.286Z,29.23
2022-11-29T09:27:45.140Z,31.67
2022-11-29T09:32:47.297Z,32.43
2022-11-29T09:37:51.034Z,31.30
2022-11-29T09:43:00.319Z,32.20
2022-11-29T09:48:37.267Z,31.77
2022-11-29T09:53:53.596Z,28.83
2022-11-29T09:58:59.542Z,28.83
2022-11-29T10:04:04.876Z,29.00
2022-11-29T10:09:17.238Z,30.13
2022-11-29T10:14:22.626Z,33.63
2022-11-29T10:19:30.944Z,28.97
2022-11-29T10:24:34.948Z,26.67
2022-11-29T10:29:37.072Z,28.93
2022-11-29T10:34:40.191Z,29.20
2022-11-29T10:39:47.253Z,29.37
2022-11-29T10:44:49.032Z,28.20
2022-11-29T10:49:51.440Z,28.07
2022-11-29T10:54:58.952Z,28.73
2022-11-29T11:00:05.066Z,27.33
2022-11-29T11:05:14.590Z,30.07
2022-11-29T11:10:27.667Z,25.73
2022-11-29T11:15:31.352Z,28.73
2022-11-29T11:20:35.875Z,27.53
2022-11-29T11:25:40.811Z,28.70
2022-11-29T11:30:51.346Z,25.70
2022-11-29T11:36:09.444Z,25.53
2022-11-29T11:41:23.903Z,30.37
2022-11-29T11:46:47.306Z,31.10
2022-11-29T11:51:50.456Z,22.80
2022-11-29T11:56:53.796Z,26.77
2022-11-29T12:01:55.951Z,29.40
2022-11-29T12:07:00.667Z,26.23
2022-11-29T12:12:15.228Z,23.80
2022-11-29T12:17:26.627Z,25.93
2022-11-29T12:22:35.780Z,30.10
2022-11-29T12:27:39.391Z,28.97
2022-11-29T12:33:03.734Z,24.27
2022-11-29T12:38:18.674Z,26.97
2022-11-29T12:43:32.114Z,25.17
2022-11-29T12:48:43.361Z,27.63
2022-11-29T12:53:59.422Z,23.67
2022-11-29T12:59:15.412Z,26.07
2022-11-29T13:04:25.424Z,33.20
2022-11-29T13:09:46.654Z,24.93
2022-11-29T13:14:57.572Z,27.90
2022-11-29T13:20:04.148Z,30.93
2022-11-29T13:25:15.346Z,30.53
2022-11-29T13:30:19.277Z,28.57
2022-11-29T13:35:25.229Z,26.90
2022-11-29T13:40:36.298Z,25.63
2022-11-29T13:45:46.904Z,29.33
2022-11-29T13:50:49.512Z,26.87
2022-11-29T13:55:55.822Z,32.43
2022-11-29T14:01:02.309Z,30.60
2022-11-29T14:06:31.639Z,28.70
2022-11-29T14:11:44.447Z,30.23
2022-11-29T14:16:50.337Z,32.20
2022-11-29T14:22:27.245Z,27.83
2022-11-29T14:27:55.933Z,30.93
2022-11-29T14:33:04.913Z,36.83
2022-11-29T14:38:14.334Z,39.03
2022-11-29T14:43:21.757Z,35.33
2022-11-29T14:48:27.034Z,34.30
2022-11-29T14:53:33.973Z,31.90
2022-11-29T14:58:35.897Z,37.00
2022-11-29T15:03:46.126Z,37.60
2022-11-29T15:08:54.377Z,37.87
2022-11-29T15:14:04.222Z,39.47
2022-11-29T15:19:33.778Z,34.83
2022-11-29T15:24:50.596Z,34.47
2022-11-29T15:29:52.692Z,38.57
2022-11-29T15:34:56.747Z,38.30
2022-11-29T15:40:03.831Z,37.87
2022-11-29T15:45:28.380Z,38.50
2022-11-29T15:50:33.665Z,35.97
2022-11-29T15:55:35.756Z,39.07
2022-11-29T16:00:38.287Z,39.53
2022-11-29T16:05:42.207Z,39.67
2022-11-29T16:10:46.973Z,38.13
2022-11-29T16:15:48.755Z,38.97
2022-11-29T16:21:00.127Z,36.60
2022-11-29T16:26:11.621Z,37.87
2022-11-29T16:31:18.091Z,46.10
2022-11-29T16:36:25.393Z,35.73
2022-11-29T16:41:32.270Z,42.17
2022-11-29T16:46:36.571Z,38.30
2022-11-29T16:51:46.180Z,35.43
2022-11-29T16:56:48.444Z,41.83
2022-11-29T17:01:51.224Z,42.53
2022-11-29T17:06:55.720Z,44.30
2022-11-29T17:11:58.500Z,41.53
2022-11-29T17:17:03.122Z,44.83
2022-11-29T17:22:06.848Z,38.60
2022-11-29T17:27:08.929Z,39.93
2022-11-29T17:32:10.982Z,44.00
2022-11-29T17:37:14.276Z,37.43
2022-11-29T17:42:16.025Z,40.47
2022-11-29T17:47:17.744Z,36.83
2022-11-29T17:52:20.900Z,42.83
2022-11-29T17:57:22.900Z,40.10
2022-11-29T18:02:25.032Z,39.77
2022-11-29T18:07:28.436Z,41.33
2022-11-29T18:12:30.737Z,39.93
2022-11-29T18:17:32.760Z,45.33
2022-11-29T18:22:36.133Z,39.67
2022-11-29T18:27:38.025Z,43.37
2022-11-29T18:32:40.002Z,42.87
2022-11-29T18:38:13.618Z,40.63
2022-11-29T18:43:05.633Z,47.03
2022-11-29T18:48:07.702Z,39.63
2022-11-29T18:53:11.323Z,48.37
2022-11-29T18:58:13.766Z,40.13
2022-11-29T19:03:16.053Z,48.53
2022-11-29T19:08:19.547Z,40.93
2022-11-29T19:13:21.951Z,44.70
2022-11-29T19:18:23.917Z,42.47
2022-11-29T19:23:27.276Z,46.90
2022-11-29T19:28:29.257Z,44.57
2022-11-29T19:33:31.297Z,46.10
2022-11-29T19:38:35.948Z,38.87
2022-11-29T19:43:38.259Z,41.23
2022-11-29T19:48:40.760Z,37.80
2022-11-29T19:53:45.250Z,42.67
2022-11-29T19:58:47.534Z,50.67
2022-11-29T20:03:50.421Z,43.33
2022-11-29T20:08:54.409Z,44.53
2022-11-29T20:13:58.452Z,51.43
2022-11-29T20:19:01.356Z,48.67
2022-11-29T20:24:07.379Z,38.90
2022-11-29T20:29:10.541Z,46.10
2022-11-29T20:34:14.728Z,39.30
2022-11-29T20:39:31.007Z,39.37
2022-11-29T20:44:37.560Z,48.37
2022-11-29T20:49:40.471Z,43.27
2022-11-29T20:54:43.834Z,45.87
2022-11-29T20:59:46.275Z,42.80
2022-11-29T21:04:54.219Z,43.30
2022-11-29T21:10:01.642Z,47.47
2022-11-29T21:15:05.320Z,45.33
2022-11-29T21:20:09.080Z,43.07
2022-11-29T21:25:20.545Z,40.70
2022-11-29T21:30:24.678Z,39.57
2022-11-29T21:35:26.497Z,42.73
2022-11-29T21:40:31.271Z,38.00
2022-11-29T21:45:32.910Z,38.83
2022-11-29T21:50:34.626Z,42.90
2022-11-29T21:55:38.083Z,37.23
2022-11-29T22:00:39.771Z,35.40
2022-11-29T22:05:42.076Z,35.10
2022-11-29T22:10:45.548Z,40.70
2022-11-29T22:15:47.795Z,47.97
2022-11-29T22:20:49.740Z,37.27
2022-11-29T22:25:52.746Z,40.00
2022-11-29T22:31:02.150Z,42.13
2022-11-29T22:36:05.818Z,41.10
2022-11-29T22:41:10.911Z,38.37
2022-11-29T22:46:16.141Z,36.70
2022-11-29T22:51:20.028Z,41.23
2022-11-29T22:56:24.250Z,37.83
2022-11-29T23:01:27.910Z,34.27
2022-11-29T23:06:32.386Z,39.73
2022-11-29T23:11:35.838Z,42.27
2022-11-29T23:16:38.227Z,41.43
2022-11-29T23:21:41.218Z,40.27
2022-11-29T23:26:46.519Z,39.67
2022-11-29T23:31:49.040Z,40.73
2022-11-29T23:36:53.173Z,38.63
2022-11-29T23:41:56.814Z,43.20
2022-11-29T23:46:58.813Z,41.73
2022-11-29T23:52:00.436Z,39.87
2022-11-29T23:57:05.356Z,39.13
